sensor_id;sensor_type;location;lat;lon;timestamp;P1;durP1;ratioP1;P2;durP2;ratioP2
73980;SDS011;62348;51.412;5.436;2023-07-24T00:01:49;5.07;;;3.65;;
73980;SDS011;62348;51.412;5.436;2023-07-24T00:04:15;4.32;;;3.72;;
73980;SDS011;62348;51.412;5.436;2023-07-24T00:06:40;3.95;;;3.25;;
73980;SDS011;62348;51.412;5.436;2023-07-24T00:09:05;3.50;;;2.95;;
73980;SDS011;62348;51.412;5.436;2023-07-24T00:11:31;5.18;;;3.00;;
73980;SDS011;62348;51.412;5.436;2023-07-24T00:13:56;6.80;;;3.08;;
73980;SDS011;62348;51.412;5.436;2023-07-24T00:16:22;6.00;;;3.55;;
73980;SDS011;62348;51.412;5.436;2023-07-24T00:18:47;3.63;;;3.28;;
73980;SDS011;62348;51.412;5.436;2023-07-24T00:21:12;5.13;;;3.17;;
73980;SDS011;62348;51.412;5.436;2023-07-24T00:23:38;4.47;;;3.10;;
73980;SDS011;62348;51.412;5.436;2023-07-24T00:26:04;4.28;;;3.25;;
73980;SDS011;62348;51.412;5.436;2023-07-24T00:28:29;3.70;;;2.90;;
73980;SDS011;62348;51.412;5.436;2023-07-24T00:30:55;3.70;;;3.22;;
73980;SDS011;62348;51.412;5.436;2023-07-24T00:33:21;3.88;;;3.40;;
73980;SDS011;62348;51.412;5.436;2023-07-24T00:35:47;4.22;;;2.92;;
73980;SDS011;62348;51.412;5.436;2023-07-24T00:38:12;3.95;;;3.33;;
73980;SDS011;62348;51.412;5.436;2023-07-24T00:40:38;4.18;;;3.33;;
73980;SDS011;62348;51.412;5.436;2023-07-24T00:43:03;4.10;;;3.00;;
73980;SDS011;62348;51.412;5.436;2023-07-24T00:45:28;6.28;;;3.33;;
73980;SDS011;62348;51.412;5.436;2023-07-24T00:47:54;4.00;;;3.30;;
73980;SDS011;62348;51.412;5.436;2023-07-24T00:50:20;4.82;;;3.28;;
73980;SDS011;62348;51.412;5.436;2023-07-24T00:52:46;3.67;;;3.30;;
73980;SDS011;62348;51.412;5.436;2023-07-24T00:55:12;5.43;;;3.78;;
73980;SDS011;62348;51.412;5.436;2023-07-24T00:57:39;5.78;;;3.75;;
73980;SDS011;62348;51.412;5.436;2023-07-24T01:00:05;8.80;;;3.78;;
73980;SDS011;62348;51.412;5.436;2023-07-24T01:02:32;4.20;;;3.53;;
73980;SDS011;62348;51.412;5.436;2023-07-24T01:04:57;6.10;;;4.97;;
73980;SDS011;62348;51.412;5.436;2023-07-24T01:07:24;7.07;;;4.13;;
73980;SDS011;62348;51.412;5.436;2023-07-24T01:09:50;7.60;;;4.18;;
73980;SDS011;62348;51.412;5.436;2023-07-24T01:17:31;6.47;;;4.00;;
73980;SDS011;62348;51.412;5.436;2023-07-24T01:19:58;6.30;;;4.20;;
73980;SDS011;62348;51.412;5.436;2023-07-24T01:27:43;6.78;;;4.25;;
73980;SDS011;62348;51.412;5.436;2023-07-24T01:30:10;7.28;;;4.88;;
73980;SDS011;62348;51.412;5.436;2023-07-24T01:32:39;6.60;;;4.57;;
73980;SDS011;62348;51.412;5.436;2023-07-24T01:35:05;6.65;;;4.22;;
73980;SDS011;62348;51.412;5.436;2023-07-24T01:37:31;7.75;;;4.82;;
73980;SDS011;62348;51.412;5.436;2023-07-24T01:39:58;8.60;;;4.93;;
73980;SDS011;62348;51.412;5.436;2023-07-24T01:42:25;7.78;;;4.68;;
73980;SDS011;62348;51.412;5.436;2023-07-24T01:44:54;6.05;;;3.95;;
73980;SDS011;62348;51.412;5.436;2023-07-24T01:47:20;8.52;;;4.68;;
73980;SDS011;62348;51.412;5.436;2023-07-24T01:49:46;7.03;;;4.63;;
73980;SDS011;62348;51.412;5.436;2023-07-24T01:52:12;6.20;;;4.60;;
73980;SDS011;62348;51.412;5.436;2023-07-24T01:54:37;8.15;;;5.32;;
73980;SDS011;62348;51.412;5.436;2023-07-24T01:57:03;8.10;;;5.10;;
73980;SDS011;62348;51.412;5.436;2023-07-24T01:59:29;7.90;;;4.70;;
73980;SDS011;62348;51.412;5.436;2023-07-24T02:01:54;6.25;;;4.30;;
73980;SDS011;62348;51.412;5.436;2023-07-24T02:04:20;8.45;;;5.45;;
73980;SDS011;62348;51.412;5.436;2023-07-24T02:06:47;8.75;;;5.60;;
73980;SDS011;62348;51.412;5.436;2023-07-24T02:09:13;7.78;;;5.78;;
73980;SDS011;62348;51.412;5.436;2023-07-24T02:11:39;8.00;;;5.50;;
73980;SDS011;62348;51.412;5.436;2023-07-24T02:14:05;8.88;;;4.63;;
73980;SDS011;62348;51.412;5.436;2023-07-24T02:16:30;7.80;;;5.38;;
73980;SDS011;62348;51.412;5.436;2023-07-24T02:18:55;9.00;;;6.53;;
73980;SDS011;62348;51.412;5.436;2023-07-24T02:21:21;10.00;;;6.38;;
73980;SDS011;62348;51.412;5.436;2023-07-24T02:23:46;9.63;;;6.38;;
73980;SDS011;62348;51.412;5.436;2023-07-24T02:26:11;10.20;;;6.50;;
73980;SDS011;62348;51.412;5.436;2023-07-24T02:28:37;9.93;;;7.15;;
73980;SDS011;62348;51.412;5.436;2023-07-24T02:31:02;9.57;;;7.20;;
73980;SDS011;62348;51.412;5.436;2023-07-24T02:33:27;7.30;;;6.25;;
73980;SDS011;62348;51.412;5.436;2023-07-24T02:35:53;8.60;;;6.63;;
73980;SDS011;62348;51.412;5.436;2023-07-24T05:12:06;3.28;;;2.97;;
73980;SDS011;62348;51.412;5.436;2023-07-24T05:14:32;4.13;;;3.28;;
73980;SDS011;62348;51.412;5.436;2023-07-24T05:16:57;3.78;;;3.28;;
73980;SDS011;62348;51.412;5.436;2023-07-24T05:19:23;3.63;;;3.33;;
73980;SDS011;62348;51.412;5.436;2023-07-24T05:21:48;4.32;;;3.88;;
73980;SDS011;62348;51.412;5.436;2023-07-24T05:24:13;4.88;;;3.45;;
73980;SDS011;62348;51.412;5.436;2023-07-24T05:26:39;4.13;;;3.33;;
73980;SDS011;62348;51.412;5.436;2023-07-24T05:29:04;5.80;;;4.20;;
73980;SDS011;62348;51.412;5.436;2023-07-24T05:31:29;4.72;;;4.07;;
73980;SDS011;62348;51.412;5.436;2023-07-24T05:33:55;5.22;;;3.78;;
73980;SDS011;62348;51.412;5.436;2023-07-24T05:36:20;6.00;;;3.58;;
73980;SDS011;62348;51.412;5.436;2023-07-24T05:38:45;3.72;;;3.42;;
73980;SDS011;62348;51.412;5.436;2023-07-24T05:41:11;4.00;;;3.55;;
73980;SDS011;62348;51.412;5.436;2023-07-24T05:43:36;4.28;;;3.30;;
73980;SDS011;62348;51.412;5.436;2023-07-24T05:46:01;4.13;;;3.40;;
73980;SDS011;62348;51.412;5.436;2023-07-24T05:48:27;4.80;;;3.38;;
73980;SDS011;62348;51.412;5.436;2023-07-24T05:50:52;4.00;;;3.60;;
73980;SDS011;62348;51.412;5.436;2023-07-24T05:53:18;3.95;;;3.50;;
73980;SDS011;62348;51.412;5.436;2023-07-24T05:55:43;5.47;;;4.00;;
73980;SDS011;62348;51.412;5.436;2023-07-24T05:58:09;4.55;;;3.50;;
73980;SDS011;62348;51.412;5.436;2023-07-24T06:00:34;4.05;;;3.75;;
73980;SDS011;62348;51.412;5.436;2023-07-24T06:03:01;6.72;;;3.85;;
73980;SDS011;62348;51.412;5.436;2023-07-24T06:05:27;4.85;;;3.50;;
73980;SDS011;62348;51.412;5.436;2023-07-24T06:07:52;5.68;;;4.20;;
73980;SDS011;62348;51.412;5.436;2023-07-24T06:10:18;4.28;;;3.88;;
73980;SDS011;62348;51.412;5.436;2023-07-24T06:12:43;3.70;;;3.40;;
73980;SDS011;62348;51.412;5.436;2023-07-24T06:15:08;4.78;;;3.40;;
73980;SDS011;62348;51.412;5.436;2023-07-24T06:17:34;4.28;;;3.38;;
73980;SDS011;62348;51.412;5.436;2023-07-24T06:19:59;3.92;;;3.42;;
73980;SDS011;62348;51.412;5.436;2023-07-24T06:22:25;3.40;;;3.03;;
73980;SDS011;62348;51.412;5.436;2023-07-24T06:24:50;4.47;;;4.07;;
73980;SDS011;62348;51.412;5.436;2023-07-24T06:27:16;4.35;;;3.35;;
73980;SDS011;62348;51.412;5.436;2023-07-24T06:29:41;3.42;;;2.95;;
73980;SDS011;62348;51.412;5.436;2023-07-24T06:32:07;3.35;;;3.05;;
73980;SDS011;62348;51.412;5.436;2023-07-24T06:34:33;4.15;;;3.00;;
73980;SDS011;62348;51.412;5.436;2023-07-24T06:36:58;3.72;;;3.08;;
73980;SDS011;62348;51.412;5.436;2023-07-24T06:39:24;3.78;;;2.75;;
73980;SDS011;62348;51.412;5.436;2023-07-24T06:41:51;5.28;;;3.30;;
73980;SDS011;62348;51.412;5.436;2023-07-24T06:44:17;4.15;;;3.42;;
73980;SDS011;62348;51.412;5.436;2023-07-24T06:46:42;4.25;;;3.47;;
73980;SDS011;62348;51.412;5.436;2023-07-24T06:49:08;4.45;;;3.13;;
73980;SDS011;62348;51.412;5.436;2023-07-24T06:51:33;3.92;;;3.28;;
73980;SDS011;62348;51.412;5.436;2023-07-24T06:53:59;5.18;;;3.60;;
73980;SDS011;62348;51.412;5.436;2023-07-24T06:56:24;4.60;;;3.83;;
73980;SDS011;62348;51.412;5.436;2023-07-24T06:58:49;3.88;;;3.35;;
73980;SDS011;62348;51.412;5.436;2023-07-24T07:01:15;3.92;;;3.20;;
73980;SDS011;62348;51.412;5.436;2023-07-24T07:03:40;5.68;;;3.47;;
73980;SDS011;62348;51.412;5.436;2023-07-24T07:06:06;4.43;;;3.33;;
73980;SDS011;62348;51.412;5.436;2023-07-24T07:08:31;5.28;;;3.70;;
73980;SDS011;62348;51.412;5.436;2023-07-24T07:10:57;5.90;;;3.60;;
73980;SDS011;62348;51.412;5.436;2023-07-24T07:13:23;4.15;;;3.38;;
73980;SDS011;62348;51.412;5.436;2023-07-24T07:15:49;3.63;;;3.33;;
73980;SDS011;62348;51.412;5.436;2023-07-24T07:18:14;4.78;;;3.30;;
73980;SDS011;62348;51.412;5.436;2023-07-24T07:20:51;3.60;;;3.30;;
73980;SDS011;62348;51.412;5.436;2023-07-24T07:23:17;5.15;;;3.28;;
73980;SDS011;62348;51.412;5.436;2023-07-24T07:25:43;6.15;;;3.40;;
73980;SDS011;62348;51.412;5.436;2023-07-24T07:28:15;4.60;;;3.67;;
73980;SDS011;62348;51.412;5.436;2023-07-24T07:30:41;4.18;;;3.58;;
73980;SDS011;62348;51.412;5.436;2023-07-24T07:33:07;4.80;;;3.10;;
73980;SDS011;62348;51.412;5.436;2023-07-24T07:35:33;5.60;;;3.72;;
73980;SDS011;62348;51.412;5.436;2023-07-24T07:37:59;5.55;;;3.30;;
73980;SDS011;62348;51.412;5.436;2023-07-24T07:40:25;4.75;;;3.75;;
73980;SDS011;62348;51.412;5.436;2023-07-24T07:42:52;4.60;;;4.13;;
73980;SDS011;62348;51.412;5.436;2023-07-24T07:45:18;4.68;;;3.80;;
73980;SDS011;62348;51.412;5.436;2023-07-24T07:47:44;4.25;;;2.97;;
73980;SDS011;62348;51.412;5.436;2023-07-24T07:50:09;5.85;;;3.50;;
73980;SDS011;62348;51.412;5.436;2023-07-24T07:52:35;5.03;;;4.55;;
73980;SDS011;62348;51.412;5.436;2023-07-24T07:55:01;4.93;;;3.72;;
73980;SDS011;62348;51.412;5.436;2023-07-24T07:57:26;4.78;;;3.80;;
73980;SDS011;62348;51.412;5.436;2023-07-24T07:59:52;4.88;;;3.55;;
73980;SDS011;62348;51.412;5.436;2023-07-24T08:02:17;5.55;;;3.50;;
73980;SDS011;62348;51.412;5.436;2023-07-24T08:04:42;5.45;;;2.97;;
73980;SDS011;62348;51.412;5.436;2023-07-24T08:07:08;5.57;;;3.90;;
73980;SDS011;62348;51.412;5.436;2023-07-24T08:09:33;5.57;;;4.10;;
73980;SDS011;62348;51.412;5.436;2023-07-24T08:11:59;4.78;;;3.47;;
73980;SDS011;62348;51.412;5.436;2023-07-24T08:14:24;5.68;;;3.90;;
73980;SDS011;62348;51.412;5.436;2023-07-24T08:16:50;5.28;;;3.63;;
73980;SDS011;62348;51.412;5.436;2023-07-24T08:19:16;5.35;;;3.90;;
73980;SDS011;62348;51.412;5.436;2023-07-24T08:21:41;10.57;;;4.32;;
73980;SDS011;62348;51.412;5.436;2023-07-24T08:24:07;5.25;;;4.43;;
73980;SDS011;62348;51.412;5.436;2023-07-24T08:26:32;5.45;;;4.35;;
73980;SDS011;62348;51.412;5.436;2023-07-24T08:28:58;5.30;;;4.80;;
73980;SDS011;62348;51.412;5.436;2023-07-24T08:31:23;7.10;;;4.78;;
73980;SDS011;62348;51.412;5.436;2023-07-24T08:33:49;7.13;;;5.47;;
73980;SDS011;62348;51.412;5.436;2023-07-24T08:36:14;7.15;;;4.80;;
73980;SDS011;62348;51.412;5.436;2023-07-24T08:38:40;6.93;;;4.72;;
73980;SDS011;62348;51.412;5.436;2023-07-24T08:41:06;5.35;;;4.70;;
73980;SDS011;62348;51.412;5.436;2023-07-24T08:43:37;6.65;;;5.47;;
73980;SDS011;62348;51.412;5.436;2023-07-24T08:46:04;7.20;;;5.35;;
73980;SDS011;62348;51.412;5.436;2023-07-24T08:48:31;7.32;;;6.60;;
73980;SDS011;62348;51.412;5.436;2023-07-24T08:51:01;6.68;;;5.40;;
73980;SDS011;62348;51.412;5.436;2023-07-24T08:53:28;6.68;;;5.03;;
73980;SDS011;62348;51.412;5.436;2023-07-24T08:55:55;6.32;;;5.72;;
73980;SDS011;62348;51.412;5.436;2023-07-24T08:58:21;5.22;;;4.72;;
73980;SDS011;62348;51.412;5.436;2023-07-24T09:00:47;6.85;;;5.28;;
73980;SDS011;62348;51.412;5.436;2023-07-24T09:03:12;5.15;;;4.65;;
73980;SDS011;62348;51.412;5.436;2023-07-24T09:05:38;7.07;;;4.40;;
73980;SDS011;62348;51.412;5.436;2023-07-24T09:08:03;5.25;;;4.22;;
73980;SDS011;62348;51.412;5.436;2023-07-24T09:10:29;7.20;;;4.82;;
73980;SDS011;62348;51.412;5.436;2023-07-24T09:12:54;4.60;;;4.07;;
73980;SDS011;62348;51.412;5.436;2023-07-24T09:15:20;6.22;;;4.20;;
73980;SDS011;62348;51.412;5.436;2023-07-24T09:17:49;4.30;;;3.88;;
73980;SDS011;62348;51.412;5.436;2023-07-24T09:20:19;5.28;;;3.78;;
73980;SDS011;62348;51.412;5.436;2023-07-24T09:22:49;5.55;;;3.83;;
73980;SDS011;62348;51.412;5.436;2023-07-24T09:25:15;4.63;;;4.07;;
73980;SDS011;62348;51.412;5.436;2023-07-24T09:27:40;5.53;;;3.80;;
73980;SDS011;62348;51.412;5.436;2023-07-24T09:30:15;4.95;;;4.38;;
73980;SDS011;62348;51.412;5.436;2023-07-24T09:32:40;4.70;;;3.88;;
73980;SDS011;62348;51.412;5.436;2023-07-24T09:35:16;4.85;;;4.25;;
73980;SDS011;62348;51.412;5.436;2023-07-24T09:37:43;3.67;;;3.38;;
73980;SDS011;62348;51.412;5.436;2023-07-24T09:40:09;4.38;;;3.70;;
73980;SDS011;62348;51.412;5.436;2023-07-24T09:42:36;7.57;;;4.22;;
73980;SDS011;62348;51.412;5.436;2023-07-24T09:45:02;6.05;;;4.45;;
73980;SDS011;62348;51.412;5.436;2023-07-24T09:47:29;5.97;;;4.75;;
73980;SDS011;62348;51.412;5.436;2023-07-24T09:49:55;6.25;;;4.78;;
73980;SDS011;62348;51.412;5.436;2023-07-24T09:52:21;7.07;;;4.55;;
73980;SDS011;62348;51.412;5.436;2023-07-24T09:55:04;4.55;;;4.13;;
73980;SDS011;62348;51.412;5.436;2023-07-24T09:57:35;6.90;;;4.35;;
73980;SDS011;62348;51.412;5.436;2023-07-24T10:00:01;5.72;;;4.18;;
73980;SDS011;62348;51.412;5.436;2023-07-24T10:02:27;6.70;;;4.38;;
73980;SDS011;62348;51.412;5.436;2023-07-24T10:04:53;5.72;;;5.13;;
73980;SDS011;62348;51.412;5.436;2023-07-24T10:07:20;5.40;;;4.70;;
73980;SDS011;62348;51.412;5.436;2023-07-24T10:09:48;5.95;;;5.45;;
73980;SDS011;62348;51.412;5.436;2023-07-24T10:12:15;6.75;;;5.90;;
73980;SDS011;62348;51.412;5.436;2023-07-24T10:14:45;7.22;;;6.30;;
73980;SDS011;62348;51.412;5.436;2023-07-24T10:17:11;6.78;;;6.07;;
73980;SDS011;62348;51.412;5.436;2023-07-24T10:19:40;6.90;;;6.20;;
73980;SDS011;62348;51.412;5.436;2023-07-24T10:22:09;8.55;;;6.32;;
73980;SDS011;62348;51.412;5.436;2023-07-24T10:24:43;6.85;;;5.75;;
73980;SDS011;62348;51.412;5.436;2023-07-24T10:27:08;7.30;;;6.10;;
73980;SDS011;62348;51.412;5.436;2023-07-24T10:29:34;6.55;;;5.60;;
73980;SDS011;62348;51.412;5.436;2023-07-24T10:32:01;7.20;;;6.30;;
73980;SDS011;62348;51.412;5.436;2023-07-24T10:34:35;10.48;;;6.25;;
73980;SDS011;62348;51.412;5.436;2023-07-24T10:37:02;7.07;;;5.32;;
73980;SDS011;62348;51.412;5.436;2023-07-24T10:39:36;6.78;;;5.63;;
73980;SDS011;62348;51.412;5.436;2023-07-24T10:42:10;6.60;;;5.88;;
73980;SDS011;62348;51.412;5.436;2023-07-24T10:47:01;7.55;;;5.88;;
73980;SDS011;62348;51.412;5.436;2023-07-24T10:49:27;7.97;;;5.65;;
73980;SDS011;62348;51.412;5.436;2023-07-24T10:51:59;6.70;;;5.60;;
73980;SDS011;62348;51.412;5.436;2023-07-24T10:54:25;6.47;;;5.83;;
73980;SDS011;62348;51.412;5.436;2023-07-24T10:56:57;7.47;;;5.47;;
73980;SDS011;62348;51.412;5.436;2023-07-24T10:59:24;5.75;;;4.97;;
73980;SDS011;62348;51.412;5.436;2023-07-24T11:02:00;7.85;;;5.53;;
73980;SDS011;62348;51.412;5.436;2023-07-24T11:04:28;5.85;;;5.00;;
73980;SDS011;62348;51.412;5.436;2023-07-24T11:06:54;5.22;;;3.80;;
73980;SDS011;62348;51.412;5.436;2023-07-24T11:09:22;3.70;;;3.15;;
73980;SDS011;62348;51.412;5.436;2023-07-24T11:11:48;7.32;;;3.50;;
73980;SDS011;62348;51.412;5.436;2023-07-24T11:14:16;3.78;;;3.00;;
73980;SDS011;62348;51.412;5.436;2023-07-24T11:16:48;4.88;;;3.17;;
73980;SDS011;62348;51.412;5.436;2023-07-24T11:24:12;4.37;;;3.40;;
73980;SDS011;62348;51.412;5.436;2023-07-24T11:26:38;4.80;;;4.07;;
73980;SDS011;62348;51.412;5.436;2023-07-24T11:29:10;5.50;;;4.10;;
73980;SDS011;62348;51.412;5.436;2023-07-24T11:31:37;5.07;;;4.40;;
73980;SDS011;62348;51.412;5.436;2023-07-24T11:34:03;5.78;;;5.20;;
73980;SDS011;62348;51.412;5.436;2023-07-24T11:36:30;6.80;;;5.57;;
73980;SDS011;62348;51.412;5.436;2023-07-24T11:38:56;6.90;;;5.70;;
73980;SDS011;62348;51.412;5.436;2023-07-24T11:41:21;6.93;;;5.93;;
73980;SDS011;62348;51.412;5.436;2023-07-24T11:43:48;9.77;;;6.30;;
73980;SDS011;62348;51.412;5.436;2023-07-24T11:46:24;6.72;;;6.00;;
73980;SDS011;62348;51.412;5.436;2023-07-24T11:48:53;7.45;;;6.28;;
73980;SDS011;62348;51.412;5.436;2023-07-24T11:51:21;7.95;;;7.10;;
73980;SDS011;62348;51.412;5.436;2023-07-24T11:53:49;9.82;;;6.82;;
73980;SDS011;62348;51.412;5.436;2023-07-24T11:56:15;8.82;;;6.97;;
73980;SDS011;62348;51.412;5.436;2023-07-24T11:58:42;8.77;;;6.80;;
73980;SDS011;62348;51.412;5.436;2023-07-24T12:01:07;7.60;;;6.85;;
73980;SDS011;62348;51.412;5.436;2023-07-24T12:03:33;8.85;;;6.82;;
73980;SDS011;62348;51.412;5.436;2023-07-24T12:05:58;7.57;;;6.78;;
73980;SDS011;62348;51.412;5.436;2023-07-24T12:08:33;7.70;;;6.53;;
73980;SDS011;62348;51.412;5.436;2023-07-24T12:10:59;8.48;;;6.38;;
73980;SDS011;62348;51.412;5.436;2023-07-24T12:13:25;9.00;;;6.03;;
73980;SDS011;62348;51.412;5.436;2023-07-24T12:15:51;7.97;;;7.18;;
73980;SDS011;62348;51.412;5.436;2023-07-24T12:18:17;8.20;;;6.60;;
73980;SDS011;62348;51.412;5.436;2023-07-24T12:20:42;6.35;;;5.72;;
73980;SDS011;62348;51.412;5.436;2023-07-24T12:23:08;7.25;;;6.53;;
73980;SDS011;62348;51.412;5.436;2023-07-24T12:25:33;6.70;;;5.93;;
73980;SDS011;62348;51.412;5.436;2023-07-24T12:27:58;5.63;;;5.13;;
73980;SDS011;62348;51.412;5.436;2023-07-24T12:30:24;6.97;;;6.28;;
73980;SDS011;62348;51.412;5.436;2023-07-24T12:32:49;6.95;;;6.05;;
73980;SDS011;62348;51.412;5.436;2023-07-24T12:35:15;8.68;;;5.57;;
73980;SDS011;62348;51.412;5.436;2023-07-24T12:37:42;7.40;;;6.45;;
73980;SDS011;62348;51.412;5.436;2023-07-24T12:40:08;6.47;;;5.88;;
73980;SDS011;62348;51.412;5.436;2023-07-24T12:42:34;8.20;;;6.35;;
73980;SDS011;62348;51.412;5.436;2023-07-24T12:45:00;6.70;;;6.10;;
73980;SDS011;62348;51.412;5.436;2023-07-24T12:47:28;7.57;;;5.95;;
73980;SDS011;62348;51.412;5.436;2023-07-24T12:49:53;7.63;;;6.25;;
73980;SDS011;62348;51.412;5.436;2023-07-24T12:52:20;9.23;;;7.05;;
73980;SDS011;62348;51.412;5.436;2023-07-24T12:54:46;7.00;;;6.30;;
73980;SDS011;62348;51.412;5.436;2023-07-24T12:57:11;8.43;;;6.13;;
73980;SDS011;62348;51.412;5.436;2023-07-24T12:59:37;6.60;;;5.55;;
73980;SDS011;62348;51.412;5.436;2023-07-24T13:02:02;7.28;;;6.03;;
73980;SDS011;62348;51.412;5.436;2023-07-24T13:04:28;7.72;;;6.75;;
73980;SDS011;62348;51.412;5.436;2023-07-24T13:06:53;6.90;;;5.57;;
73980;SDS011;62348;51.412;5.436;2023-07-24T13:09:19;6.00;;;4.88;;
73980;SDS011;62348;51.412;5.436;2023-07-24T13:11:44;6.30;;;5.70;;
73980;SDS011;62348;51.412;5.436;2023-07-24T13:14:12;7.78;;;5.93;;
73980;SDS011;62348;51.412;5.436;2023-07-24T13:16:37;6.50;;;5.90;;
73980;SDS011;62348;51.412;5.436;2023-07-24T13:19:03;6.95;;;5.60;;
73980;SDS011;62348;51.412;5.436;2023-07-24T13:21:29;6.70;;;5.70;;
73980;SDS011;62348;51.412;5.436;2023-07-24T13:23:54;7.10;;;5.72;;
73980;SDS011;62348;51.412;5.436;2023-07-24T13:26:20;5.93;;;5.30;;
73980;SDS011;62348;51.412;5.436;2023-07-24T13:28:46;6.03;;;5.57;;
73980;SDS011;62348;51.412;5.436;2023-07-24T13:31:15;7.93;;;6.43;;
73980;SDS011;62348;51.412;5.436;2023-07-24T13:33:42;6.38;;;5.57;;
73980;SDS011;62348;51.412;5.436;2023-07-24T13:36:08;6.65;;;6.07;;
73980;SDS011;62348;51.412;5.436;2023-07-24T13:38:34;8.27;;;5.75;;
73980;SDS011;62348;51.412;5.436;2023-07-24T13:41:00;6.38;;;5.78;;
73980;SDS011;62348;51.412;5.436;2023-07-24T13:43:26;6.25;;;5.63;;
73980;SDS011;62348;51.412;5.436;2023-07-24T13:45:52;6.00;;;5.25;;
73980;SDS011;62348;51.412;5.436;2023-07-24T13:48:18;8.38;;;6.35;;
73980;SDS011;62348;51.412;5.436;2023-07-24T13:50:43;6.65;;;6.07;;
73980;SDS011;62348;51.412;5.436;2023-07-24T13:53:09;8.20;;;6.20;;
73980;SDS011;62348;51.412;5.436;2023-07-24T13:55:34;7.35;;;5.88;;
73980;SDS011;62348;51.412;5.436;2023-07-24T13:57:59;6.90;;;5.78;;
73980;SDS011;62348;51.412;5.436;2023-07-24T14:00:25;7.05;;;6.10;;
73980;SDS011;62348;51.412;5.436;2023-07-24T14:02:51;7.30;;;5.97;;
73980;SDS011;62348;51.412;5.436;2023-07-24T14:05:16;7.38;;;4.93;;
73980;SDS011;62348;51.412;5.436;2023-07-24T14:07:42;10.75;;;4.53;;
73980;SDS011;62348;51.412;5.436;2023-07-24T14:10:08;5.90;;;5.28;;
73980;SDS011;62348;51.412;5.436;2023-07-24T14:12:33;7.70;;;5.53;;
73980;SDS011;62348;51.412;5.436;2023-07-24T14:14:59;6.43;;;4.47;;
73980;SDS011;62348;51.412;5.436;2023-07-24T14:17:24;5.22;;;3.33;;
73980;SDS011;62348;51.412;5.436;2023-07-24T14:19:49;4.50;;;2.65;;
73980;SDS011;62348;51.412;5.436;2023-07-24T14:22:15;3.25;;;2.35;;
73980;SDS011;62348;51.412;5.436;2023-07-24T14:24:40;6.07;;;3.47;;
73980;SDS011;62348;51.412;5.436;2023-07-24T14:27:06;2.72;;;2.40;;
73980;SDS011;62348;51.412;5.436;2023-07-24T14:29:31;3.35;;;1.75;;
73980;SDS011;62348;51.412;5.436;2023-07-24T14:31:56;4.75;;;2.30;;
73980;SDS011;62348;51.412;5.436;2023-07-24T14:34:22;2.60;;;2.00;;
73980;SDS011;62348;51.412;5.436;2023-07-24T14:36:48;2.40;;;1.80;;
73980;SDS011;62348;51.412;5.436;2023-07-24T14:39:13;4.38;;;2.25;;
73980;SDS011;62348;51.412;5.436;2023-07-24T14:41:38;3.35;;;2.00;;
73980;SDS011;62348;51.412;5.436;2023-07-24T14:44:04;4.68;;;2.17;;
73980;SDS011;62348;51.412;5.436;2023-07-24T14:46:30;4.60;;;2.45;;
73980;SDS011;62348;51.412;5.436;2023-07-24T14:48:55;3.45;;;3.15;;
73980;SDS011;62348;51.412;5.436;2023-07-24T14:51:20;4.05;;;3.00;;
73980;SDS011;62348;51.412;5.436;2023-07-24T14:53:46;7.43;;;4.47;;
73980;SDS011;62348;51.412;5.436;2023-07-24T14:56:11;6.30;;;4.57;;
73980;SDS011;62348;51.412;5.436;2023-07-24T14:58:36;6.47;;;4.47;;
73980;SDS011;62348;51.412;5.436;2023-07-24T15:01:02;6.10;;;4.75;;
73980;SDS011;62348;51.412;5.436;2023-07-24T15:03:28;5.85;;;5.32;;
73980;SDS011;62348;51.412;5.436;2023-07-24T15:05:53;7.07;;;5.35;;
73980;SDS011;62348;51.412;5.436;2023-07-24T15:08:19;7.53;;;5.57;;
73980;SDS011;62348;51.412;5.436;2023-07-24T15:10:44;4.88;;;4.40;;
73980;SDS011;62348;51.412;5.436;2023-07-24T15:13:09;7.72;;;4.28;;
73980;SDS011;62348;51.412;5.436;2023-07-24T15:15:35;4.95;;;4.00;;
73980;SDS011;62348;51.412;5.436;2023-07-24T15:18:01;3.78;;;3.47;;
73980;SDS011;62348;51.412;5.436;2023-07-24T15:20:26;6.10;;;4.30;;
73980;SDS011;62348;51.412;5.436;2023-07-24T15:22:51;6.82;;;4.22;;
73980;SDS011;62348;51.412;5.436;2023-07-24T15:25:20;6.88;;;5.07;;
73980;SDS011;62348;51.412;5.436;2023-07-24T15:27:46;21.20;;;7.93;;
73980;SDS011;62348;51.412;5.436;2023-07-24T15:30:11;6.85;;;6.05;;
73980;SDS011;62348;51.412;5.436;2023-07-24T15:32:38;7.50;;;5.68;;
73980;SDS011;62348;51.412;5.436;2023-07-24T15:35:03;7.25;;;6.57;;
73980;SDS011;62348;51.412;5.436;2023-07-24T15:37:29;8.27;;;6.80;;
73980;SDS011;62348;51.412;5.436;2023-07-24T15:39:55;9.23;;;6.72;;
73980;SDS011;62348;51.412;5.436;2023-07-24T15:42:21;6.65;;;6.00;;
73980;SDS011;62348;51.412;5.436;2023-07-24T15:44:47;7.00;;;6.30;;
73980;SDS011;62348;51.412;5.436;2023-07-24T15:47:13;6.88;;;6.05;;
73980;SDS011;62348;51.412;5.436;2023-07-24T15:49:39;8.50;;;7.53;;
73980;SDS011;62348;51.412;5.436;2023-07-24T15:52:05;9.00;;;6.35;;
73980;SDS011;62348;51.412;5.436;2023-07-24T15:54:31;9.68;;;7.93;;
73980;SDS011;62348;51.412;5.436;2023-07-24T15:56:56;11.80;;;8.85;;
73980;SDS011;62348;51.412;5.436;2023-07-24T15:59:22;13.05;;;9.40;;
73980;SDS011;62348;51.412;5.436;2023-07-24T16:01:47;11.32;;;9.25;;
73980;SDS011;62348;51.412;5.436;2023-07-24T16:04:13;12.43;;;10.18;;
73980;SDS011;62348;51.412;5.436;2023-07-24T16:06:38;15.93;;;11.45;;
73980;SDS011;62348;51.412;5.436;2023-07-24T16:09:04;8.80;;;7.03;;
73980;SDS011;62348;51.412;5.436;2023-07-24T16:11:29;10.43;;;7.40;;
73980;SDS011;62348;51.412;5.436;2023-07-24T16:13:56;11.13;;;7.55;;
73980;SDS011;62348;51.412;5.436;2023-07-24T16:16:21;8.90;;;8.00;;
73980;SDS011;62348;51.412;5.436;2023-07-24T16:18:47;11.38;;;8.77;;
73980;SDS011;62348;51.412;5.436;2023-07-24T16:21:32;12.07;;;9.23;;
73980;SDS011;62348;51.412;5.436;2023-07-24T16:23:57;8.48;;;7.60;;
73980;SDS011;62348;51.412;5.436;2023-07-24T16:26:23;10.60;;;8.82;;
73980;SDS011;62348;51.412;5.436;2023-07-24T16:28:48;10.65;;;8.05;;
73980;SDS011;62348;51.412;5.436;2023-07-24T16:31:14;8.55;;;7.60;;
73980;SDS011;62348;51.412;5.436;2023-07-24T16:33:39;9.60;;;8.02;;
73980;SDS011;62348;51.412;5.436;2023-07-24T16:36:04;8.80;;;7.90;;
73980;SDS011;62348;51.412;5.436;2023-07-24T16:38:30;8.73;;;7.82;;
73980;SDS011;62348;51.412;5.436;2023-07-24T16:40:55;8.75;;;7.85;;
73980;SDS011;62348;51.412;5.436;2023-07-24T16:43:20;9.40;;;8.52;;
73980;SDS011;62348;51.412;5.436;2023-07-24T16:45:47;11.25;;;8.95;;
73980;SDS011;62348;51.412;5.436;2023-07-24T16:48:15;9.25;;;8.35;;
73980;SDS011;62348;51.412;5.436;2023-07-24T16:50:41;11.55;;;9.45;;
73980;SDS011;62348;51.412;5.436;2023-07-24T16:53:06;11.73;;;9.57;;
73980;SDS011;62348;51.412;5.436;2023-07-24T16:55:32;11.30;;;10.13;;
73980;SDS011;62348;51.412;5.436;2023-07-24T16:57:57;11.50;;;9.98;;
73980;SDS011;62348;51.412;5.436;2023-07-24T17:00:23;14.45;;;10.63;;
73980;SDS011;62348;51.412;5.436;2023-07-24T17:02:48;13.60;;;10.23;;
73980;SDS011;62348;51.412;5.436;2023-07-24T17:05:13;10.80;;;8.98;;
73980;SDS011;62348;51.412;5.436;2023-07-24T17:07:39;9.43;;;7.22;;
73980;SDS011;62348;51.412;5.436;2023-07-24T17:10:04;10.07;;;6.28;;
73980;SDS011;62348;51.412;5.436;2023-07-24T17:12:30;10.38;;;5.75;;
73980;SDS011;62348;51.412;5.436;2023-07-24T17:14:55;7.53;;;4.65;;
73980;SDS011;62348;51.412;5.436;2023-07-24T17:17:21;9.07;;;4.80;;
73980;SDS011;62348;51.412;5.436;2023-07-24T17:19:46;10.13;;;4.90;;
73980;SDS011;62348;51.412;5.436;2023-07-24T17:22:12;8.48;;;4.53;;
73980;SDS011;62348;51.412;5.436;2023-07-24T17:24:37;6.95;;;3.28;;
73980;SDS011;62348;51.412;5.436;2023-07-24T17:27:03;9.35;;;3.13;;
73980;SDS011;62348;51.412;5.436;2023-07-24T17:29:28;4.75;;;3.33;;
73980;SDS011;62348;51.412;5.436;2023-07-24T17:31:54;5.50;;;2.28;;